メインページ
METAR-TAF:

METAR-TAF

空港 :

種子島空港

種子島, 日本

緯度: 30-33N, 経度: 130-57E, 海抜: 92m

現時点の気象観測

当レポートは13時間58分前の09:00(UTC)に作成
の風 5kt、北東から東/南東の間で変化する
気温 15°C
湿度 94%
気圧 1016 hPa
視程: 2000m
高度100ftの雲はほとんどない
高度2000ftの雲は散在している
高度5000ftの千切れ雲あり
弱いにわか雨, 靄

METAR: RJFG 160900Z 08005KT 050V110 2000 -SHRA BR FEW001 SCT020 BKN050 15/14 Q1016

時間: 07:58 (22:58 UTC)


TAF: 見つかりません

4,000以上の空港の気象観測と天気予報(METAR報とTAF報)

利用可能な観測所は地図上に黄色い丸と赤い丸で示す。

丸の上にカーソルを重ねると観測所名を参照できる。

次にクリックすると気象観測と天気予報を参照できる。

マップの切り替え:黒色「×」印の緑ボタンをクリックして拡大、「-」印の緑ボタンをクリックして縮小、緑色の三角印をクリックして隣りの地図に切り替え


METAR-TAF: